Eddyville, KY

5:31 PM CST on December 07, 2016 (GMT -0600)
The Ridge Eddycreek | | Change Station

Elev 471 ft 37.02 °N, 88.01 °W | Updated 23 seconds ago

Overcast
Overcast
41.0 °F
Feels Like 38 °F
N
4.8
Wind Variable Wind from NNE
Gusts 5.8 mph

Today
High -- | Low -- °F
--% Chance of Precip.
Yesterday
High -- | Low -- °F
Precip. -- in
Pressure 30.21 in
Visibility 10.0 miles
Clouds Overcast 7500 ft
Windchill 38 °F
Dew Point 26 °F
Humidity 54%
Rainfall in
Snow Depth Not available.
6:52 AM 4:35 PM
First Quarter, 57% visible
METAR K5M9 072315Z AUTO 36006KT 10SM OVC075 04/M04 A3021 RMK AO2 T00361045
Pressure 30.21 in
Visibility 10.0 miles
Clouds Overcast 7500 ft
Windchill 38 °F
Dew Point 26 °F
Humidity 54%
Rainfall in
Snow Depth Not available.
6:52 AM 4:35 PM
First Quarter, 57% visible
METAR K5M9 072315Z AUTO 36006KT 10SM OVC075 04/M04 A3021 RMK AO2 T00361045

10-Day Weather Forecast

Almanac

Astronomy

Dec. 07, 2016 Rise Set
Actual Time
Civil Twilight
Nautical Twilight
Astronomical Twilight
Moon
Length of Visible Light
Length of Day
Tomorrow will be .
, % of the Moon is Illuminated

Today's Extremes

State Highs State Lows

Community

WunderPhotos

Upload Photos

1,956,219 photos uploaded!

WunderBlog® & News

Nearby

Air Quality

  Air Quality AQ Index Pollutant
Not available.

Snow Depth

Station Depth Elevation

Earthquake Activity

City Distance Mag. Time & Date
Minimum magnitude displayed is 2.5.

Coastal Water Temperatures

Place Temperature

Stations

Nearby Weather Stations

Station Location Temp. Windchill Dew Point Humidity Wind Precip. Elev Updated Type
                   

Watches & Warnings

There are currently no watches in effect.